30NY weather

Coye Field
Canadice, New York, United States

Public forecast

Using degrees Fahrenheit for public forecast. Weather courtesy of forecast.io.

Closest aviation weather report (METAR) to Coye Field

Closest report is Dansville Municipal Airport, 12.8 nm (23.6 km) SSW. Retrieved 2020/08/06 05:54 UTC (32 minutes ago):

KDSV 060554Z AUTO 00000KT 10SM CLR 14/12 A3015 RMK AO2 SLP216 T01390117 10217 20133 51007

Closest aviation forecast (TAF) to Coye Field

Closest forecast is Greater Rochester International Airport, 22.7 nm (42.1 km) NNW. Retrieved 2020/08/06 06:22 UTC (4 minutes ago):

TAF KROC 060520Z 0606/0706 24005KT P6SM SCT250 FM061100 VRB03KT P6SM BKN250 FM061700 04006KT P6SM SCT250